sensor_id;sensor_type;location;lat;lon;timestamp;P1;durP1;ratioP1;P2;durP2;ratioP2
13388;SDS011;6764;53.250;10.410;2024-01-07T00:00:00;3.73;;;3.27;;
13388;SDS011;6764;53.250;10.410;2024-01-07T00:02:27;4.53;;;3.63;;
13388;SDS011;6764;53.250;10.410;2024-01-07T00:04:52;4.27;;;3.60;;
13388;SDS011;6764;53.250;10.410;2024-01-07T00:07:18;5.13;;;3.60;;
13388;SDS011;6764;53.250;10.410;2024-01-07T00:09:45;4.33;;;3.80;;
13388;SDS011;6764;53.250;10.410;2024-01-07T00:12:11;4.47;;;4.07;;
13388;SDS011;6764;53.250;10.410;2024-01-07T00:14:36;3.77;;;3.40;;
13388;SDS011;6764;53.250;10.410;2024-01-07T00:17:02;3.27;;;2.90;;
13388;SDS011;6764;53.250;10.410;2024-01-07T00:19:28;4.67;;;3.53;;
13388;SDS011;6764;53.250;10.410;2024-01-07T00:21:56;5.37;;;3.20;;
13388;SDS011;6764;53.250;10.410;2024-01-07T00:24:21;6.43;;;3.80;;
13388;SDS011;6764;53.250;10.410;2024-01-07T00:26:47;5.27;;;3.20;;
13388;SDS011;6764;53.250;10.410;2024-01-07T00:29:13;3.70;;;3.13;;
13388;SDS011;6764;53.250;10.410;2024-01-07T00:31:38;7.07;;;3.47;;
13388;SDS011;6764;53.250;10.410;2024-01-07T00:34:04;3.50;;;3.20;;
13388;SDS011;6764;53.250;10.410;2024-01-07T00:36:29;4.67;;;3.43;;
13388;SDS011;6764;53.250;10.410;2024-01-07T00:38:55;3.77;;;3.33;;
13388;SDS011;6764;53.250;10.410;2024-01-07T00:41:20;4.23;;;2.90;;
13388;SDS011;6764;53.250;10.410;2024-01-07T00:43:46;4.70;;;3.43;;
13388;SDS011;6764;53.250;10.410;2024-01-07T00:46:12;5.10;;;3.53;;
13388;SDS011;6764;53.250;10.410;2024-01-07T00:48:37;3.40;;;3.10;;
13388;SDS011;6764;53.250;10.410;2024-01-07T00:51:03;4.43;;;4.03;;
13388;SDS011;6764;53.250;10.410;2024-01-07T00:53:29;3.87;;;3.47;;
13388;SDS011;6764;53.250;10.410;2024-01-07T00:55:54;4.10;;;3.47;;
13388;SDS011;6764;53.250;10.410;2024-01-07T00:58:20;4.50;;;3.43;;
13388;SDS011;6764;53.250;10.410;2024-01-07T01:00:46;3.70;;;3.33;;
13388;SDS011;6764;53.250;10.410;2024-01-07T01:03:11;4.30;;;3.90;;
13388;SDS011;6764;53.250;10.410;2024-01-07T01:05:37;3.33;;;2.90;;
13388;SDS011;6764;53.250;10.410;2024-01-07T01:08:03;3.80;;;3.23;;
13388;SDS011;6764;53.250;10.410;2024-01-07T01:10:28;3.57;;;3.27;;
13388;SDS011;6764;53.250;10.410;2024-01-07T01:12:54;4.50;;;3.23;;
13388;SDS011;6764;53.250;10.410;2024-01-07T01:15:20;4.43;;;2.80;;
13388;SDS011;6764;53.250;10.410;2024-01-07T01:17:45;6.13;;;3.30;;
13388;SDS011;6764;53.250;10.410;2024-01-07T01:20:11;3.27;;;2.97;;
13388;SDS011;6764;53.250;10.410;2024-01-07T01:22:37;3.57;;;3.27;;
13388;SDS011;6764;53.250;10.410;2024-01-07T01:25:02;3.60;;;3.30;;
13388;SDS011;6764;53.250;10.410;2024-01-07T01:27:29;3.50;;;3.20;;
13388;SDS011;6764;53.250;10.410;2024-01-07T01:29:54;3.70;;;3.03;;
13388;SDS011;6764;53.250;10.410;2024-01-07T01:32:20;3.47;;;2.97;;
13388;SDS011;6764;53.250;10.410;2024-01-07T01:34:45;5.27;;;3.47;;
13388;SDS011;6764;53.250;10.410;2024-01-07T01:37:11;7.03;;;4.10;;
13388;SDS011;6764;53.250;10.410;2024-01-07T01:39:40;4.33;;;3.40;;
13388;SDS011;6764;53.250;10.410;2024-01-07T01:42:06;4.30;;;3.93;;
13388;SDS011;6764;53.250;10.410;2024-01-07T01:44:32;3.80;;;2.93;;
13388;SDS011;6764;53.250;10.410;2024-01-07T01:46:58;3.27;;;2.97;;
13388;SDS011;6764;53.250;10.410;2024-01-07T01:49:25;3.90;;;3.40;;
13388;SDS011;6764;53.250;10.410;2024-01-07T01:51:52;3.70;;;3.03;;
13388;SDS011;6764;53.250;10.410;2024-01-07T01:54:18;3.43;;;3.10;;
13388;SDS011;6764;53.250;10.410;2024-01-07T01:56:45;4.00;;;3.70;;
13388;SDS011;6764;53.250;10.410;2024-01-07T01:59:12;4.77;;;3.43;;
13388;SDS011;6764;53.250;10.410;2024-01-07T02:01:39;3.80;;;3.50;;
13388;SDS011;6764;53.250;10.410;2024-01-07T02:04:05;4.73;;;3.30;;
13388;SDS011;6764;53.250;10.410;2024-01-07T02:06:30;4.23;;;3.43;;
13388;SDS011;6764;53.250;10.410;2024-01-07T02:08:56;4.23;;;3.47;;
13388;SDS011;6764;53.250;10.410;2024-01-07T02:11:22;4.57;;;3.43;;
13388;SDS011;6764;53.250;10.410;2024-01-07T02:13:48;7.27;;;3.27;;
13388;SDS011;6764;53.250;10.410;2024-01-07T02:16:14;3.53;;;3.10;;
13388;SDS011;6764;53.250;10.410;2024-01-07T02:18:40;4.17;;;3.60;;
13388;SDS011;6764;53.250;10.410;2024-01-07T02:21:07;4.70;;;3.53;;
13388;SDS011;6764;53.250;10.410;2024-01-07T02:23:34;3.00;;;2.80;;
13388;SDS011;6764;53.250;10.410;2024-01-07T02:26:00;3.67;;;3.10;;
13388;SDS011;6764;53.250;10.410;2024-01-07T02:28:25;4.87;;;4.20;;
13388;SDS011;6764;53.250;10.410;2024-01-07T02:30:51;4.30;;;3.80;;
13388;SDS011;6764;53.250;10.410;2024-01-07T02:33:17;4.50;;;3.20;;
13388;SDS011;6764;53.250;10.410;2024-01-07T02:35:42;3.20;;;2.80;;
13388;SDS011;6764;53.250;10.410;2024-01-07T02:38:08;3.73;;;2.80;;
13388;SDS011;6764;53.250;10.410;2024-01-07T02:40:33;3.37;;;3.07;;
13388;SDS011;6764;53.250;10.410;2024-01-07T02:42:59;4.33;;;3.00;;
13388;SDS011;6764;53.250;10.410;2024-01-07T02:45:25;7.43;;;3.07;;
13388;SDS011;6764;53.250;10.410;2024-01-07T02:47:50;3.40;;;3.10;;
13388;SDS011;6764;53.250;10.410;2024-01-07T02:50:16;3.17;;;2.97;;
13388;SDS011;6764;53.250;10.410;2024-01-07T02:52:42;4.03;;;3.63;;
13388;SDS011;6764;53.250;10.410;2024-01-07T02:55:07;5.33;;;3.43;;
13388;SDS011;6764;53.250;10.410;2024-01-07T02:57:33;3.77;;;3.40;;
13388;SDS011;6764;53.250;10.410;2024-01-07T02:59:59;5.37;;;3.50;;
13388;SDS011;6764;53.250;10.410;2024-01-07T03:02:25;3.83;;;3.40;;
13388;SDS011;6764;53.250;10.410;2024-01-07T03:04:50;3.63;;;3.10;;
13388;SDS011;6764;53.250;10.410;2024-01-07T03:07:16;5.57;;;3.07;;
13388;SDS011;6764;53.250;10.410;2024-01-07T03:09:42;7.50;;;3.40;;
13388;SDS011;6764;53.250;10.410;2024-01-07T03:12:08;3.13;;;2.83;;
13388;SDS011;6764;53.250;10.410;2024-01-07T03:14:33;3.80;;;3.40;;
13388;SDS011;6764;53.250;10.410;2024-01-07T03:16:59;3.47;;;3.20;;
13388;SDS011;6764;53.250;10.410;2024-01-07T03:19:24;3.83;;;3.20;;
13388;SDS011;6764;53.250;10.410;2024-01-07T03:21:50;6.07;;;3.10;;
13388;SDS011;6764;53.250;10.410;2024-01-07T03:24:15;3.30;;;3.00;;
13388;SDS011;6764;53.250;10.410;2024-01-07T03:26:41;4.57;;;3.00;;
13388;SDS011;6764;53.250;10.410;2024-01-07T03:29:07;3.47;;;3.10;;
13388;SDS011;6764;53.250;10.410;2024-01-07T03:31:32;3.63;;;2.80;;
13388;SDS011;6764;53.250;10.410;2024-01-07T03:33:58;5.07;;;3.20;;
13388;SDS011;6764;53.250;10.410;2024-01-07T03:36:24;3.97;;;3.13;;
13388;SDS011;6764;53.250;10.410;2024-01-07T03:38:50;3.27;;;2.70;;
13388;SDS011;6764;53.250;10.410;2024-01-07T03:41:16;3.37;;;2.70;;
13388;SDS011;6764;53.250;10.410;2024-01-07T03:43:48;2.70;;;2.50;;
13388;SDS011;6764;53.250;10.410;2024-01-07T03:46:15;3.37;;;2.67;;
13388;SDS011;6764;53.250;10.410;2024-01-07T03:48:41;2.90;;;2.60;;
13388;SDS011;6764;53.250;10.410;2024-01-07T03:51:07;2.80;;;2.60;;
13388;SDS011;6764;53.250;10.410;2024-01-07T03:53:33;3.23;;;2.90;;
13388;SDS011;6764;53.250;10.410;2024-01-07T03:55:59;3.07;;;2.70;;
13388;SDS011;6764;53.250;10.410;2024-01-07T03:58:24;2.77;;;2.57;;
13388;SDS011;6764;53.250;10.410;2024-01-07T04:00:50;2.50;;;2.30;;
13388;SDS011;6764;53.250;10.410;2024-01-07T04:03:16;3.07;;;2.70;;
13388;SDS011;6764;53.250;10.410;2024-01-07T04:05:41;3.17;;;2.77;;
13388;SDS011;6764;53.250;10.410;2024-01-07T04:08:10;4.20;;;2.67;;
13388;SDS011;6764;53.250;10.410;2024-01-07T04:10:36;5.07;;;2.63;;
13388;SDS011;6764;53.250;10.410;2024-01-07T04:13:03;4.23;;;2.70;;
13388;SDS011;6764;53.250;10.410;2024-01-07T04:15:32;2.93;;;2.73;;
13388;SDS011;6764;53.250;10.410;2024-01-07T04:18:00;2.90;;;2.60;;
13388;SDS011;6764;53.250;10.410;2024-01-07T04:20:29;3.30;;;2.90;;
13388;SDS011;6764;53.250;10.410;2024-01-07T04:22:56;5.33;;;2.53;;
13388;SDS011;6764;53.250;10.410;2024-01-07T04:25:22;2.93;;;2.73;;
13388;SDS011;6764;53.250;10.410;2024-01-07T04:27:50;2.40;;;2.20;;
13388;SDS011;6764;53.250;10.410;2024-01-07T04:30:16;2.67;;;2.40;;
13388;SDS011;6764;53.250;10.410;2024-01-07T04:32:42;2.63;;;2.43;;
13388;SDS011;6764;53.250;10.410;2024-01-07T04:35:07;2.67;;;2.47;;
13388;SDS011;6764;53.250;10.410;2024-01-07T04:37:33;3.97;;;2.50;;
13388;SDS011;6764;53.250;10.410;2024-01-07T04:40:00;3.60;;;3.00;;
13388;SDS011;6764;53.250;10.410;2024-01-07T04:42:25;3.30;;;2.40;;
13388;SDS011;6764;53.250;10.410;2024-01-07T04:44:51;4.40;;;2.60;;
13388;SDS011;6764;53.250;10.410;2024-01-07T04:47:30;3.87;;;2.60;;
13388;SDS011;6764;53.250;10.410;2024-01-07T04:49:56;3.83;;;2.60;;
13388;SDS011;6764;53.250;10.410;2024-01-07T04:52:22;2.90;;;2.60;;
13388;SDS011;6764;53.250;10.410;2024-01-07T04:54:51;3.97;;;2.70;;
13388;SDS011;6764;53.250;10.410;2024-01-07T04:57:18;3.10;;;2.80;;
13388;SDS011;6764;53.250;10.410;2024-01-07T04:59:44;3.23;;;2.90;;
13388;SDS011;6764;53.250;10.410;2024-01-07T05:02:10;2.83;;;2.63;;
13388;SDS011;6764;53.250;10.410;2024-01-07T05:04:36;3.33;;;3.00;;
13388;SDS011;6764;53.250;10.410;2024-01-07T05:07:02;5.50;;;2.67;;
13388;SDS011;6764;53.250;10.410;2024-01-07T05:09:28;2.87;;;2.40;;
13388;SDS011;6764;53.250;10.410;2024-01-07T05:11:54;3.10;;;2.80;;
13388;SDS011;6764;53.250;10.410;2024-01-07T05:14:19;2.77;;;2.57;;
13388;SDS011;6764;53.250;10.410;2024-01-07T05:16:45;3.50;;;2.60;;
13388;SDS011;6764;53.250;10.410;2024-01-07T05:19:11;2.73;;;2.53;;
13388;SDS011;6764;53.250;10.410;2024-01-07T05:21:36;5.63;;;2.63;;
13388;SDS011;6764;53.250;10.410;2024-01-07T05:24:02;3.00;;;2.70;;
13388;SDS011;6764;53.250;10.410;2024-01-07T05:26:28;3.07;;;2.33;;
13388;SDS011;6764;53.250;10.410;2024-01-07T05:28:53;3.60;;;3.20;;
13388;SDS011;6764;53.250;10.410;2024-01-07T05:31:19;3.60;;;2.43;;
13388;SDS011;6764;53.250;10.410;2024-01-07T05:33:45;2.83;;;2.53;;
13388;SDS011;6764;53.250;10.410;2024-01-07T05:36:11;2.90;;;2.60;;
13388;SDS011;6764;53.250;10.410;2024-01-07T05:38:37;3.30;;;2.40;;
13388;SDS011;6764;53.250;10.410;2024-01-07T05:41:03;3.13;;;2.80;;
13388;SDS011;6764;53.250;10.410;2024-01-07T05:43:29;2.83;;;2.53;;
13388;SDS011;6764;53.250;10.410;2024-01-07T05:45:54;3.37;;;2.73;;
13388;SDS011;6764;53.250;10.410;2024-01-07T05:48:21;3.17;;;2.87;;
13388;SDS011;6764;53.250;10.410;2024-01-07T05:50:47;5.07;;;3.00;;
13388;SDS011;6764;53.250;10.410;2024-01-07T05:53:13;4.50;;;2.73;;
13388;SDS011;6764;53.250;10.410;2024-01-07T05:55:38;2.53;;;2.33;;
13388;SDS011;6764;53.250;10.410;2024-01-07T05:58:04;2.80;;;2.37;;
13388;SDS011;6764;53.250;10.410;2024-01-07T06:00:30;4.30;;;2.47;;
13388;SDS011;6764;53.250;10.410;2024-01-07T06:02:55;2.93;;;2.20;;
13388;SDS011;6764;53.250;10.410;2024-01-07T06:05:21;4.73;;;2.63;;
13388;SDS011;6764;53.250;10.410;2024-01-07T06:07:47;2.40;;;2.20;;
13388;SDS011;6764;53.250;10.410;2024-01-07T06:10:12;2.90;;;2.50;;
13388;SDS011;6764;53.250;10.410;2024-01-07T06:12:38;2.80;;;2.60;;
13388;SDS011;6764;53.250;10.410;2024-01-07T06:15:04;4.57;;;2.90;;
13388;SDS011;6764;53.250;10.410;2024-01-07T06:17:30;3.87;;;2.70;;
13388;SDS011;6764;53.250;10.410;2024-01-07T06:19:56;3.47;;;2.80;;
13388;SDS011;6764;53.250;10.410;2024-01-07T06:22:22;3.50;;;2.57;;
13388;SDS011;6764;53.250;10.410;2024-01-07T06:24:48;2.87;;;2.50;;
13388;SDS011;6764;53.250;10.410;2024-01-07T06:27:13;4.10;;;2.20;;
13388;SDS011;6764;53.250;10.410;2024-01-07T06:29:39;3.07;;;2.73;;
13388;SDS011;6764;53.250;10.410;2024-01-07T06:32:05;2.97;;;2.70;;
13388;SDS011;6764;53.250;10.410;2024-01-07T06:34:31;3.40;;;2.57;;
13388;SDS011;6764;53.250;10.410;2024-01-07T06:36:58;2.80;;;2.60;;
13388;SDS011;6764;53.250;10.410;2024-01-07T06:39:23;3.23;;;2.60;;
13388;SDS011;6764;53.250;10.410;2024-01-07T06:41:51;2.80;;;2.53;;
13388;SDS011;6764;53.250;10.410;2024-01-07T06:44:17;3.10;;;2.80;;
13388;SDS011;6764;53.250;10.410;2024-01-07T06:46:43;3.17;;;2.87;;
13388;SDS011;6764;53.250;10.410;2024-01-07T06:49:08;3.00;;;2.70;;
13388;SDS011;6764;53.250;10.410;2024-01-07T06:51:34;2.80;;;2.60;;
13388;SDS011;6764;53.250;10.410;2024-01-07T06:54:00;3.20;;;2.67;;
13388;SDS011;6764;53.250;10.410;2024-01-07T06:56:25;2.70;;;2.50;;
13388;SDS011;6764;53.250;10.410;2024-01-07T06:58:51;3.87;;;2.40;;
13388;SDS011;6764;53.250;10.410;2024-01-07T07:01:20;5.07;;;2.67;;
13388;SDS011;6764;53.250;10.410;2024-01-07T07:03:49;3.20;;;2.47;;
13388;SDS011;6764;53.250;10.410;2024-01-07T07:06:15;2.73;;;2.50;;
13388;SDS011;6764;53.250;10.410;2024-01-07T07:08:41;7.27;;;3.10;;
13388;SDS011;6764;53.250;10.410;2024-01-07T07:11:08;3.97;;;2.40;;
13388;SDS011;6764;53.250;10.410;2024-01-07T07:13:33;2.73;;;2.40;;
13388;SDS011;6764;53.250;10.410;2024-01-07T07:15:59;3.90;;;2.63;;
13388;SDS011;6764;53.250;10.410;2024-01-07T07:18:25;3.07;;;2.77;;
13388;SDS011;6764;53.250;10.410;2024-01-07T07:20:51;2.93;;;2.70;;
13388;SDS011;6764;53.250;10.410;2024-01-07T07:23:17;3.03;;;2.73;;
13388;SDS011;6764;53.250;10.410;2024-01-07T07:25:43;7.37;;;2.90;;
13388;SDS011;6764;53.250;10.410;2024-01-07T07:28:08;3.97;;;2.60;;
13388;SDS011;6764;53.250;10.410;2024-01-07T07:30:34;3.37;;;2.70;;
13388;SDS011;6764;53.250;10.410;2024-01-07T07:33:00;2.60;;;2.40;;
13388;SDS011;6764;53.250;10.410;2024-01-07T07:35:25;2.93;;;2.73;;
13388;SDS011;6764;53.250;10.410;2024-01-07T07:37:51;3.23;;;2.70;;
13388;SDS011;6764;53.250;10.410;2024-01-07T07:40:17;3.53;;;2.83;;
13388;SDS011;6764;53.250;10.410;2024-01-07T07:42:43;3.30;;;2.83;;
13388;SDS011;6764;53.250;10.410;2024-01-07T07:45:09;4.23;;;2.87;;
13388;SDS011;6764;53.250;10.410;2024-01-07T07:47:35;3.43;;;3.07;;
13388;SDS011;6764;53.250;10.410;2024-01-07T07:50:00;4.13;;;2.80;;
13388;SDS011;6764;53.250;10.410;2024-01-07T07:52:27;4.37;;;2.90;;
13388;SDS011;6764;53.250;10.410;2024-01-07T07:54:53;3.17;;;2.87;;
13388;SDS011;6764;53.250;10.410;2024-01-07T07:57:19;2.63;;;2.40;;
13388;SDS011;6764;53.250;10.410;2024-01-07T07:59:50;4.20;;;2.70;;
13388;SDS011;6764;53.250;10.410;2024-01-07T08:02:15;3.27;;;2.90;;
13388;SDS011;6764;53.250;10.410;2024-01-07T08:04:41;4.30;;;2.73;;
13388;SDS011;6764;53.250;10.410;2024-01-07T08:07:08;2.53;;;2.33;;
13388;SDS011;6764;53.250;10.410;2024-01-07T08:09:34;3.00;;;2.50;;
13388;SDS011;6764;53.250;10.410;2024-01-07T08:12:03;3.23;;;2.50;;
13388;SDS011;6764;53.250;10.410;2024-01-07T08:14:30;3.73;;;2.53;;
13388;SDS011;6764;53.250;10.410;2024-01-07T08:16:56;3.17;;;2.77;;
13388;SDS011;6764;53.250;10.410;2024-01-07T08:19:22;4.67;;;2.90;;
13388;SDS011;6764;53.250;10.410;2024-01-07T08:21:47;3.63;;;2.67;;
13388;SDS011;6764;53.250;10.410;2024-01-07T08:24:13;2.93;;;2.73;;
13388;SDS011;6764;53.250;10.410;2024-01-07T08:26:39;2.43;;;2.23;;
13388;SDS011;6764;53.250;10.410;2024-01-07T08:29:04;7.47;;;3.20;;
13388;SDS011;6764;53.250;10.410;2024-01-07T08:31:30;6.70;;;2.80;;
13388;SDS011;6764;53.250;10.410;2024-01-07T08:33:56;2.97;;;2.67;;
13388;SDS011;6764;53.250;10.410;2024-01-07T08:36:22;2.60;;;2.40;;
13388;SDS011;6764;53.250;10.410;2024-01-07T08:38:48;3.63;;;2.60;;
13388;SDS011;6764;53.250;10.410;2024-01-07T08:41:17;3.43;;;2.80;;
13388;SDS011;6764;53.250;10.410;2024-01-07T08:43:43;5.43;;;2.90;;
13388;SDS011;6764;53.250;10.410;2024-01-07T08:46:09;3.27;;;2.50;;
13388;SDS011;6764;53.250;10.410;2024-01-07T08:48:35;4.53;;;2.70;;
13388;SDS011;6764;53.250;10.410;2024-01-07T08:51:01;3.20;;;2.77;;
13388;SDS011;6764;53.250;10.410;2024-01-07T08:53:28;3.27;;;2.90;;
13388;SDS011;6764;53.250;10.410;2024-01-07T08:55:53;4.37;;;2.50;;
13388;SDS011;6764;53.250;10.410;2024-01-07T08:58:19;3.70;;;2.70;;
13388;SDS011;6764;53.250;10.410;2024-01-07T09:00:45;2.93;;;2.70;;
13388;SDS011;6764;53.250;10.410;2024-01-07T09:03:10;2.60;;;2.40;;
13388;SDS011;6764;53.250;10.410;2024-01-07T09:05:36;3.03;;;2.70;;
13388;SDS011;6764;53.250;10.410;2024-01-07T09:08:02;2.50;;;2.30;;
13388;SDS011;6764;53.250;10.410;2024-01-07T09:10:28;2.63;;;2.43;;
13388;SDS011;6764;53.250;10.410;2024-01-07T09:12:53;3.83;;;2.50;;
13388;SDS011;6764;53.250;10.410;2024-01-07T09:15:19;2.70;;;2.50;;
13388;SDS011;6764;53.250;10.410;2024-01-07T09:17:46;3.17;;;2.53;;
13388;SDS011;6764;53.250;10.410;2024-01-07T09:20:12;3.13;;;2.50;;
13388;SDS011;6764;53.250;10.410;2024-01-07T09:22:38;3.20;;;2.87;;
13388;SDS011;6764;53.250;10.410;2024-01-07T09:25:04;3.87;;;2.70;;
13388;SDS011;6764;53.250;10.410;2024-01-07T09:27:30;2.67;;;2.40;;
13388;SDS011;6764;53.250;10.410;2024-01-07T09:29:56;5.40;;;2.60;;
13388;SDS011;6764;53.250;10.410;2024-01-07T09:32:22;4.23;;;2.53;;
13388;SDS011;6764;53.250;10.410;2024-01-07T09:34:48;5.03;;;2.77;;
13388;SDS011;6764;53.250;10.410;2024-01-07T09:37:14;3.10;;;2.80;;
13388;SDS011;6764;53.250;10.410;2024-01-07T09:39:40;4.77;;;3.00;;
13388;SDS011;6764;53.250;10.410;2024-01-07T09:42:10;3.40;;;3.00;;
13388;SDS011;6764;53.250;10.410;2024-01-07T09:44:41;3.97;;;2.70;;
13388;SDS011;6764;53.250;10.410;2024-01-07T09:47:11;3.97;;;3.00;;
13388;SDS011;6764;53.250;10.410;2024-01-07T09:49:39;3.97;;;2.73;;
13388;SDS011;6764;53.250;10.410;2024-01-07T09:52:05;3.53;;;2.77;;
13388;SDS011;6764;53.250;10.410;2024-01-07T09:54:35;3.00;;;2.70;;
13388;SDS011;6764;53.250;10.410;2024-01-07T09:57:03;5.00;;;2.97;;
13388;SDS011;6764;53.250;10.410;2024-01-07T09:59:31;3.00;;;2.80;;
13388;SDS011;6764;53.250;10.410;2024-01-07T10:01:57;4.13;;;3.37;;
13388;SDS011;6764;53.250;10.410;2024-01-07T10:04:24;3.60;;;2.97;;
13388;SDS011;6764;53.250;10.410;2024-01-07T10:06:50;3.23;;;2.93;;
13388;SDS011;6764;53.250;10.410;2024-01-07T10:09:17;5.40;;;3.10;;
13388;SDS011;6764;53.250;10.410;2024-01-07T10:11:44;3.40;;;3.10;;
13388;SDS011;6764;53.250;10.410;2024-01-07T10:14:09;6.33;;;3.10;;
13388;SDS011;6764;53.250;10.410;2024-01-07T10:16:35;4.07;;;3.67;;
13388;SDS011;6764;53.250;10.410;2024-01-07T10:19:01;4.20;;;3.00;;
13388;SDS011;6764;53.250;10.410;2024-01-07T10:21:27;4.97;;;3.50;;
13388;SDS011;6764;53.250;10.410;2024-01-07T10:24:08;4.13;;;3.40;;
13388;SDS011;6764;53.250;10.410;2024-01-07T10:26:37;3.87;;;3.17;;
13388;SDS011;6764;53.250;10.410;2024-01-07T10:29:03;4.70;;;3.67;;
13388;SDS011;6764;53.250;10.410;2024-01-07T10:31:29;3.53;;;3.10;;
13388;SDS011;6764;53.250;10.410;2024-01-07T10:33:56;3.97;;;3.40;;
13388;SDS011;6764;53.250;10.410;2024-01-07T10:36:22;4.13;;;3.73;;
13388;SDS011;6764;53.250;10.410;2024-01-07T10:38:49;4.67;;;3.30;;
13388;SDS011;6764;53.250;10.410;2024-01-07T10:41:19;3.90;;;3.50;;
13388;SDS011;6764;53.250;10.410;2024-01-07T10:43:47;4.07;;;3.60;;
13388;SDS011;6764;53.250;10.410;2024-01-07T10:46:14;4.30;;;3.57;;
13388;SDS011;6764;53.250;10.410;2024-01-07T10:48:48;5.27;;;3.23;;
13388;SDS011;6764;53.250;10.410;2024-01-07T10:51:20;7.57;;;5.70;;
13388;SDS011;6764;53.250;10.410;2024-01-07T10:53:47;4.83;;;3.53;;
13388;SDS011;6764;53.250;10.410;2024-01-07T10:56:22;4.00;;;3.57;;
13388;SDS011;6764;53.250;10.410;2024-01-07T10:58:48;4.17;;;3.40;;
13388;SDS011;6764;53.250;10.410;2024-01-07T11:01:19;4.17;;;3.27;;
13388;SDS011;6764;53.250;10.410;2024-01-07T11:03:48;4.77;;;3.47;;
13388;SDS011;6764;53.250;10.410;2024-01-07T11:09:38;4.80;;;3.20;;
13388;SDS011;6764;53.250;10.410;2024-01-07T11:12:10;4.40;;;4.00;;
13388;SDS011;6764;53.250;10.410;2024-01-07T11:14:40;3.53;;;3.17;;
13388;SDS011;6764;53.250;10.410;2024-01-07T11:17:10;4.90;;;3.30;;
13388;SDS011;6764;53.250;10.410;2024-01-07T11:19:36;4.37;;;3.37;;
13388;SDS011;6764;53.250;10.410;2024-01-07T11:24:47;5.87;;;3.77;;
13388;SDS011;6764;53.250;10.410;2024-01-07T11:27:12;3.97;;;3.43;;
13388;SDS011;6764;53.250;10.410;2024-01-07T11:29:40;4.13;;;3.10;;
13388;SDS011;6764;53.250;10.410;2024-01-07T11:32:06;3.57;;;3.27;;
13388;SDS011;6764;53.250;10.410;2024-01-07T11:34:41;7.10;;;3.80;;
13388;SDS011;6764;53.250;10.410;2024-01-07T11:37:11;5.73;;;3.53;;
13388;SDS011;6764;53.250;10.410;2024-01-07T11:39:38;5.50;;;3.50;;
13388;SDS011;6764;53.250;10.410;2024-01-07T11:42:07;6.47;;;3.43;;
13388;SDS011;6764;53.250;10.410;2024-01-07T11:44:34;4.93;;;3.63;;
13388;SDS011;6764;53.250;10.410;2024-01-07T11:47:02;3.87;;;2.93;;
13388;SDS011;6764;53.250;10.410;2024-01-07T11:49:28;2.77;;;2.57;;
13388;SDS011;6764;53.250;10.410;2024-01-07T11:51:53;3.97;;;3.30;;
13388;SDS011;6764;53.250;10.410;2024-01-07T11:54:19;5.23;;;3.27;;
13388;SDS011;6764;53.250;10.410;2024-01-07T11:56:45;4.07;;;3.57;;
13388;SDS011;6764;53.250;10.410;2024-01-07T11:59:10;3.27;;;2.97;;
13388;SDS011;6764;53.250;10.410;2024-01-07T12:01:36;5.67;;;3.40;;
13388;SDS011;6764;53.250;10.410;2024-01-07T12:04:01;4.40;;;3.03;;
13388;SDS011;6764;53.250;10.410;2024-01-07T12:06:27;3.37;;;2.60;;
13388;SDS011;6764;53.250;10.410;2024-01-07T12:08:53;4.40;;;3.10;;
13388;SDS011;6764;53.250;10.410;2024-01-07T12:11:18;3.80;;;2.67;;
13388;SDS011;6764;53.250;10.410;2024-01-07T12:13:44;3.97;;;2.73;;
13388;SDS011;6764;53.250;10.410;2024-01-07T12:16:10;3.10;;;2.60;;
13388;SDS011;6764;53.250;10.410;2024-01-07T12:18:36;2.70;;;2.50;;
13388;SDS011;6764;53.250;10.410;2024-01-07T12:21:03;3.43;;;2.90;;
13388;SDS011;6764;53.250;10.410;2024-01-07T12:23:33;3.50;;;2.70;;
13388;SDS011;6764;53.250;10.410;2024-01-07T12:26:10;2.80;;;2.50;;
13388;SDS011;6764;53.250;10.410;2024-01-07T12:28:36;3.77;;;2.30;;
13388;SDS011;6764;53.250;10.410;2024-01-07T12:31:05;3.37;;;2.50;;
13388;SDS011;6764;53.250;10.410;2024-01-07T12:33:32;2.60;;;2.40;;
13388;SDS011;6764;53.250;10.410;2024-01-07T12:35:59;3.03;;;2.17;;
13388;SDS011;6764;53.250;10.410;2024-01-07T12:38:25;3.63;;;2.70;;
13388;SDS011;6764;53.250;10.410;2024-01-07T12:40:54;3.03;;;2.80;;
13388;SDS011;6764;53.250;10.410;2024-01-07T12:43:20;2.53;;;2.33;;
13388;SDS011;6764;53.250;10.410;2024-01-07T12:45:49;2.50;;;2.30;;
13388;SDS011;6764;53.250;10.410;2024-01-07T12:48:15;5.87;;;2.40;;
13388;SDS011;6764;53.250;10.410;2024-01-07T12:50:41;2.70;;;2.50;;
13388;SDS011;6764;53.250;10.410;2024-01-07T12:53:06;2.70;;;2.27;;
13388;SDS011;6764;53.250;10.410;2024-01-07T12:55:32;2.40;;;2.20;;
13388;SDS011;6764;53.250;10.410;2024-01-07T12:57:58;4.03;;;3.00;;
13388;SDS011;6764;53.250;10.410;2024-01-07T13:00:24;3.57;;;3.27;;
13388;SDS011;6764;53.250;10.410;2024-01-07T13:02:51;4.33;;;3.93;;
13388;SDS011;6764;53.250;10.410;2024-01-07T13:05:17;4.27;;;3.70;;
13388;SDS011;6764;53.250;10.410;2024-01-07T13:07:43;10.40;;;6.60;;
13388;SDS011;6764;53.250;10.410;2024-01-07T13:10:09;6.87;;;4.93;;
13388;SDS011;6764;53.250;10.410;2024-01-07T13:12:35;7.33;;;4.60;;
13388;SDS011;6764;53.250;10.410;2024-01-07T13:15:01;4.93;;;4.03;;
13388;SDS011;6764;53.250;10.410;2024-01-07T13:17:28;5.43;;;4.20;;
13388;SDS011;6764;53.250;10.410;2024-01-07T13:19:55;4.23;;;3.83;;
13388;SDS011;6764;53.250;10.410;2024-01-07T13:22:21;4.27;;;3.80;;
13388;SDS011;6764;53.250;10.410;2024-01-07T13:24:46;5.73;;;3.97;;
13388;SDS011;6764;53.250;10.410;2024-01-07T13:27:12;5.40;;;3.50;;
13388;SDS011;6764;53.250;10.410;2024-01-07T13:29:38;4.50;;;3.70;;
13388;SDS011;6764;53.250;10.410;2024-01-07T13:32:04;5.40;;;3.40;;
13388;SDS011;6764;53.250;10.410;2024-01-07T13:34:30;8.67;;;5.47;;
13388;SDS011;6764;53.250;10.410;2024-01-07T13:36:55;4.90;;;3.53;;
13388;SDS011;6764;53.250;10.410;2024-01-07T13:39:21;5.17;;;4.07;;
13388;SDS011;6764;53.250;10.410;2024-01-07T13:41:47;4.63;;;3.93;;
13388;SDS011;6764;53.250;10.410;2024-01-07T13:44:13;4.70;;;4.30;;
13388;SDS011;6764;53.250;10.410;2024-01-07T13:46:45;5.60;;;4.50;;
13388;SDS011;6764;53.250;10.410;2024-01-07T13:49:11;7.03;;;4.20;;
13388;SDS011;6764;53.250;10.410;2024-01-07T13:51:38;7.83;;;5.20;;
13388;SDS011;6764;53.250;10.410;2024-01-07T13:54:03;4.40;;;4.00;;
13388;SDS011;6764;53.250;10.410;2024-01-07T13:56:30;5.77;;;4.30;;
13388;SDS011;6764;53.250;10.410;2024-01-07T13:58:56;7.93;;;5.17;;
13388;SDS011;6764;53.250;10.410;2024-01-07T14:01:21;6.67;;;4.77;;
13388;SDS011;6764;53.250;10.410;2024-01-07T14:03:47;7.00;;;4.10;;
13388;SDS011;6764;53.250;10.410;2024-01-07T14:06:13;5.93;;;3.70;;
13388;SDS011;6764;53.250;10.410;2024-01-07T14:08:38;6.17;;;3.43;;
13388;SDS011;6764;53.250;10.410;2024-01-07T14:11:04;5.60;;;3.10;;
13388;SDS011;6764;53.250;10.410;2024-01-07T14:13:32;3.37;;;3.03;;
13388;SDS011;6764;53.250;10.410;2024-01-07T14:15:57;4.00;;;3.30;;
13388;SDS011;6764;53.250;10.410;2024-01-07T14:18:23;6.17;;;3.77;;
13388;SDS011;6764;53.250;10.410;2024-01-07T14:20:48;5.57;;;4.17;;
13388;SDS011;6764;53.250;10.410;2024-01-07T14:23:14;4.53;;;3.67;;
13388;SDS011;6764;53.250;10.410;2024-01-07T14:25:40;3.77;;;3.30;;
13388;SDS011;6764;53.250;10.410;2024-01-07T14:28:06;5.23;;;3.73;;
13388;SDS011;6764;53.250;10.410;2024-01-07T14:30:32;4.03;;;3.40;;
13388;SDS011;6764;53.250;10.410;2024-01-07T14:32:58;6.63;;;4.37;;
13388;SDS011;6764;53.250;10.410;2024-01-07T14:35:23;5.50;;;4.33;;
13388;SDS011;6764;53.250;10.410;2024-01-07T14:37:54;7.70;;;3.90;;
13388;SDS011;6764;53.250;10.410;2024-01-07T14:40:19;5.17;;;3.63;;
13388;SDS011;6764;53.250;10.410;2024-01-07T14:42:45;5.73;;;4.30;;
13388;SDS011;6764;53.250;10.410;2024-01-07T14:45:11;4.47;;;4.07;;
13388;SDS011;6764;53.250;10.410;2024-01-07T14:47:36;4.63;;;3.67;;